createdAt,value
2023-01-27T00:01:15.719Z,12.00
2023-01-27T00:03:43.163Z,10.63
2023-01-27T00:06:13.073Z,9.60
2023-01-27T00:08:40.410Z,10.60
2023-01-27T00:11:25.530Z,10.73
2023-01-27T00:13:52.890Z,10.67
2023-01-27T00:16:21.618Z,11.10
2023-01-27T00:18:49.044Z,10.00
2023-01-27T00:21:34.215Z,10.07
2023-01-27T00:24:19.086Z,12.57
2023-01-27T00:26:46.417Z,8.40
2023-01-27T00:29:13.819Z,11.40
2023-01-27T00:32:00.064Z,8.87
2023-01-27T00:34:27.561Z,9.50
2023-01-27T00:36:54.881Z,11.97
2023-01-27T00:39:22.268Z,10.73
2023-01-27T00:41:49.623Z,9.90
2023-01-27T00:44:16.976Z,10.70
2023-01-27T00:46:45.769Z,9.47
2023-01-27T00:49:13.433Z,10.70
2023-01-27T00:51:40.923Z,10.40
2023-01-27T00:54:08.281Z,10.90
2023-01-27T00:56:35.737Z,11.40
2023-01-27T00:59:03.366Z,10.47
2023-01-27T01:01:31.397Z,10.53
2023-01-27T01:04:00.365Z,9.93
2023-01-27T01:06:28.282Z,11.53
2023-01-27T01:08:57.053Z,11.83
2023-01-27T01:11:24.926Z,9.23
2023-01-27T01:13:55.592Z,9.53
2023-01-27T01:16:24.264Z,9.43
2023-01-27T01:18:51.687Z,10.50
2023-01-27T01:21:20.362Z,10.03
2023-01-27T01:23:47.716Z,10.97
2023-01-27T01:26:15.760Z,12.10
2023-01-27T01:28:44.382Z,11.13
2023-01-27T01:31:12.719Z,9.47
2023-01-27T01:33:40.471Z,10.73
2023-01-27T01:36:08.403Z,11.20
2023-01-27T01:38:37.105Z,10.70
2023-01-27T01:41:04.530Z,10.50
2023-01-27T01:43:31.920Z,10.07
2023-01-27T01:45:59.643Z,10.13
2023-01-27T01:48:31.942Z,10.97
2023-01-27T01:51:01.002Z,10.27
2023-01-27T01:53:32.774Z,10.30
2023-01-27T01:56:05.125Z,12.07
2023-01-27T01:58:33.064Z,10.90
2023-01-27T02:01:00.390Z,12.10
2023-01-27T02:03:29.521Z,12.17
2023-01-27T02:05:56.970Z,11.23
2023-01-27T02:08:26.776Z,13.83
2023-01-27T02:10:55.013Z,10.50
2023-01-27T02:13:23.719Z,12.03
2023-01-27T02:15:52.617Z,10.80
2023-01-27T02:18:20.026Z,10.33
2023-01-27T02:20:48.196Z,10.03
2023-01-27T02:23:25.402Z,11.50
2023-01-27T02:25:56.705Z,11.10
2023-01-27T02:28:27.488Z,9.83
2023-01-27T02:30:54.958Z,10.50
2023-01-27T02:33:22.357Z,10.30
2023-01-27T02:35:58.995Z,11.07
2023-01-27T02:38:27.472Z,11.23
2023-01-27T02:40:58.715Z,11.50
2023-01-27T02:43:26.058Z,12.03
2023-01-27T02:45:53.568Z,10.87
2023-01-27T02:48:20.908Z,9.67
2023-01-27T02:50:48.281Z,12.63
2023-01-27T02:53:15.949Z,12.93
2023-01-27T02:55:43.304Z,13.70
2023-01-27T02:58:12.009Z,12.17
2023-01-27T03:00:39.336Z,18.87
2023-01-27T03:03:06.806Z,14.97
2023-01-27T03:05:34.132Z,12.40
2023-01-27T03:08:01.685Z,10.23
2023-01-27T03:10:29.220Z,13.40
2023-01-27T03:12:56.625Z,12.43
2023-01-27T03:15:43.363Z,11.73
2023-01-27T03:18:13.023Z,12.37
2023-01-27T03:20:40.824Z,13.70
2023-01-27T03:23:08.317Z,12.30
2023-01-27T03:25:35.686Z,13.30
2023-01-27T03:28:03.185Z,13.43
2023-01-27T03:30:31.998Z,12.60
2023-01-27T03:32:59.497Z,12.47
2023-01-27T03:35:34.342Z,13.17
2023-01-27T03:38:19.472Z,15.27
2023-01-27T03:41:04.205Z,10.83
2023-01-27T03:43:49.129Z,11.43
2023-01-27T03:46:20.504Z,10.37
2023-01-27T03:48:52.135Z,12.60
2023-01-27T03:51:20.017Z,11.73
2023-01-27T03:53:47.822Z,11.00
2023-01-27T03:56:15.694Z,11.13
2023-01-27T03:58:43.206Z,8.07
2023-01-27T04:01:13.981Z,8.97
2023-01-27T04:04:00.155Z,7.20
2023-01-27T04:06:45.457Z,5.33
2023-01-27T04:09:13.353Z,4.67
2023-01-27T04:11:56.008Z,3.47
2023-01-27T04:14:24.499Z,3.87
2023-01-27T04:16:53.306Z,3.57
2023-01-27T04:19:21.988Z,3.40
2023-01-27T04:21:49.627Z,4.07
2023-01-27T04:24:24.369Z,3.57
2023-01-27T04:26:53.108Z,4.10
2023-01-27T04:29:20.616Z,3.60
2023-01-27T04:31:48.028Z,3.20
2023-01-27T04:34:15.619Z,3.40
2023-01-27T04:36:44.348Z,3.40
2023-01-27T04:39:12.189Z,3.83
2023-01-27T04:41:39.808Z,3.90
2023-01-27T04:44:07.635Z,3.30
2023-01-27T04:46:35.344Z,3.77
2023-01-27T04:49:02.742Z,4.53
2023-01-27T04:51:30.117Z,3.77
2023-01-27T04:53:58.930Z,3.70
2023-01-27T04:56:29.288Z,4.90
2023-01-27T04:58:59.042Z,4.20
2023-01-27T05:01:26.570Z,4.33
2023-01-27T05:03:53.991Z,8.20
2023-01-27T05:06:21.520Z,7.50
2023-01-27T05:08:48.897Z,6.90
2023-01-27T05:11:18.063Z,11.93
2023-01-27T05:13:45.648Z,16.57
2023-01-27T05:16:13.761Z,9.87
2023-01-27T05:18:41.566Z,10.43
2023-01-27T05:21:09.736Z,13.03
2023-01-27T05:23:37.059Z,15.63
2023-01-27T05:26:08.558Z,17.83
2023-01-27T05:28:37.814Z,15.13
2023-01-27T05:31:06.555Z,9.20
2023-01-27T05:33:34.041Z,9.40
2023-01-27T05:36:02.327Z,6.97
2023-01-27T05:38:29.789Z,6.57
2023-01-27T05:40:58.116Z,5.83
2023-01-27T05:43:25.944Z,6.57
2023-01-27T05:45:54.704Z,6.63
2023-01-27T05:48:22.039Z,6.27
2023-01-27T05:50:55.210Z,5.27
2023-01-27T05:53:23.712Z,5.77
2023-01-27T05:55:51.499Z,5.80
2023-01-27T05:58:19.143Z,5.13
2023-01-27T06:00:46.546Z,6.00
2023-01-27T06:03:15.307Z,6.17
2023-01-27T06:05:50.397Z,5.17
2023-01-27T06:08:17.823Z,5.93
2023-01-27T06:10:45.353Z,6.10
2023-01-27T06:13:13.240Z,6.20
2023-01-27T06:15:41.497Z,6.33
2023-01-27T06:18:08.900Z,5.80
2023-01-27T06:20:37.811Z,4.67
2023-01-27T06:23:05.496Z,5.77
2023-01-27T06:25:36.115Z,5.63
2023-01-27T06:28:03.464Z,5.70
2023-01-27T06:30:30.807Z,5.17
2023-01-27T06:32:58.168Z,4.87
2023-01-27T06:35:25.546Z,5.70
2023-01-27T06:37:54.253Z,3.93
2023-01-27T06:40:21.920Z,5.13
2023-01-27T06:42:49.504Z,4.63
2023-01-27T06:45:17.030Z,4.87
2023-01-27T06:47:44.584Z,4.90
2023-01-27T06:50:12.739Z,5.07
2023-01-27T06:52:40.344Z,5.20
2023-01-27T06:55:09.555Z,5.33
2023-01-27T06:57:36.896Z,5.27
2023-01-27T07:00:04.584Z,5.23
2023-01-27T07:02:31.930Z,4.33
2023-01-27T07:04:59.349Z,4.03
2023-01-27T07:07:26.703Z,5.17
2023-01-27T07:09:54.041Z,4.50
2023-01-27T07:12:22.784Z,3.43
2023-01-27T07:14:50.155Z,4.03
2023-01-27T07:17:17.502Z,4.83
2023-01-27T07:19:45.070Z,4.07
2023-01-27T07:22:12.427Z,4.67
2023-01-27T07:24:39.827Z,4.10
2023-01-27T07:27:07.172Z,5.10
2023-01-27T07:29:35.915Z,3.67
2023-01-27T07:32:03.284Z,4.00
2023-01-27T07:34:30.797Z,3.80
2023-01-27T07:36:58.351Z,5.00
2023-01-27T07:39:26.781Z,3.60
2023-01-27T07:41:54.405Z,3.67
2023-01-27T07:44:22.400Z,3.40
2023-01-27T07:46:51.084Z,3.50
2023-01-27T07:49:18.415Z,3.83
2023-01-27T07:51:46.033Z,3.70
2023-01-27T07:54:13.579Z,4.10
2023-01-27T07:56:40.997Z,3.73
2023-01-27T07:59:08.371Z,4.07
2023-01-27T08:01:35.705Z,3.50
2023-01-27T08:04:04.425Z,3.20
2023-01-27T08:06:32.607Z,3.13
2023-01-27T08:09:00.455Z,3.53
2023-01-27T08:11:27.831Z,3.50
2023-01-27T08:13:55.259Z,3.40
2023-01-27T08:16:22.749Z,3.17
2023-01-27T08:18:50.157Z,2.77
2023-01-27T08:21:19.052Z,3.20
2023-01-27T08:23:47.085Z,4.10
2023-01-27T08:26:14.777Z,3.10
2023-01-27T08:28:42.195Z,2.23
2023-01-27T08:31:10.744Z,2.57
2023-01-27T08:33:38.465Z,2.97
2023-01-27T08:36:07.600Z,3.83
2023-01-27T08:38:37.526Z,4.93
2023-01-27T08:41:05.916Z,4.83
2023-01-27T08:43:33.521Z,4.83
2023-01-27T08:46:01.296Z,5.70
2023-01-27T08:48:29.240Z,4.30
2023-01-27T08:50:57.115Z,5.47
2023-01-27T08:53:24.903Z,4.43
2023-01-27T08:55:56.661Z,4.07
2023-01-27T08:58:24.234Z,5.07
2023-01-27T09:00:51.633Z,2.13
2023-01-27T09:03:18.992Z,3.37
2023-01-27T09:05:47.694Z,3.43
2023-01-27T09:08:15.887Z,4.03
2023-01-27T09:10:43.559Z,3.97
2023-01-27T09:13:12.304Z,3.37
2023-01-27T09:15:40.834Z,3.07
2023-01-27T09:18:08.177Z,2.93
2023-01-27T09:20:37.162Z,2.90
2023-01-27T09:23:05.138Z,2.40
2023-01-27T09:25:32.554Z,2.53
2023-01-27T09:28:00.740Z,2.53
2023-01-27T09:30:29.892Z,2.37
2023-01-27T09:32:58.845Z,2.00
2023-01-27T09:35:26.669Z,2.23
2023-01-27T09:37:55.298Z,1.77
2023-01-27T09:40:30.557Z,2.10
2023-01-27T09:43:05.432Z,4.43
2023-01-27T09:45:39.715Z,2.20
2023-01-27T09:48:14.861Z,3.20
2023-01-27T09:50:45.145Z,1.87
2023-01-27T09:53:26.333Z,4.20
2023-01-27T09:55:57.480Z,1.77
2023-01-27T09:58:28.619Z,2.93
2023-01-27T10:01:04.133Z,2.13
2023-01-27T10:03:40.225Z,3.77
2023-01-27T10:06:17.135Z,3.13
2023-01-27T10:08:53.989Z,2.37
2023-01-27T10:11:24.607Z,2.10
2023-01-27T10:13:59.068Z,3.03
2023-01-27T10:16:40.405Z,2.10
2023-01-27T10:19:15.731Z,3.90
2023-01-27T10:21:46.416Z,1.60
2023-01-27T10:24:17.260Z,1.20
2023-01-27T10:26:48.892Z,1.43
2023-01-27T10:29:21.839Z,2.20
2023-01-27T10:31:55.420Z,1.20
2023-01-27T10:34:27.629Z,1.20
2023-01-27T10:37:00.218Z,1.73
2023-01-27T10:39:30.991Z,1.63
2023-01-27T10:42:01.306Z,1.20
2023-01-27T10:44:38.670Z,1.20
2023-01-27T10:47:12.835Z,1.90
2023-01-27T10:49:41.755Z,0.87
2023-01-27T10:52:11.680Z,2.43
2023-01-27T10:54:41.885Z,1.30
2023-01-27T10:57:11.181Z,1.13
2023-01-27T10:59:40.826Z,0.57
2023-01-27T11:02:14.615Z,0.87
2023-01-27T11:04:43.695Z,1.30
2023-01-27T11:07:16.224Z,0.83
2023-01-27T11:09:44.820Z,0.93
2023-01-27T11:12:14.834Z,0.67
2023-01-27T11:14:45.066Z,0.80
2023-01-27T11:17:16.785Z,1.60
2023-01-27T11:19:47.142Z,0.87
2023-01-27T11:22:18.307Z,0.70
2023-01-27T11:24:47.084Z,1.33
2023-01-27T11:27:19.003Z,0.80
2023-01-27T11:29:49.038Z,1.10
2023-01-27T11:32:21.712Z,1.10
2023-01-27T11:34:55.614Z,1.17
2023-01-27T11:37:24.475Z,0.90
2023-01-27T11:39:51.886Z,0.60
2023-01-27T11:42:19.471Z,1.20
2023-01-27T11:44:46.869Z,1.73
2023-01-27T11:47:21.654Z,1.40
2023-01-27T11:49:52.278Z,1.30
2023-01-27T11:52:20.614Z,2.03
2023-01-27T11:54:50.576Z,1.30
2023-01-27T11:57:19.508Z,2.33
2023-01-27T11:59:47.999Z,1.10
2023-01-27T12:02:20.405Z,1.00
2023-01-27T12:04:51.810Z,2.37
2023-01-27T12:07:23.358Z,1.93
2023-01-27T12:09:50.776Z,1.50
2023-01-27T12:12:22.898Z,3.03
2023-01-27T12:14:51.082Z,1.43
2023-01-27T12:17:22.969Z,2.43
2023-01-27T12:19:50.296Z,1.27
2023-01-27T12:22:19.773Z,1.60
2023-01-27T12:24:50.395Z,1.83
2023-01-27T12:27:21.155Z,1.53
2023-01-27T12:29:51.410Z,2.67
2023-01-27T12:32:21.591Z,2.17
2023-01-27T12:34:50.882Z,1.70
2023-01-27T12:37:22.797Z,2.80
2023-01-27T12:39:57.003Z,1.73
2023-01-27T12:42:34.329Z,1.83
2023-01-27T12:45:02.156Z,1.30
2023-01-27T12:47:30.358Z,1.20
2023-01-27T12:50:18.601Z,1.47
2023-01-27T12:52:52.958Z,1.17
2023-01-27T12:55:32.472Z,2.00
2023-01-27T12:58:00.041Z,1.37
2023-01-27T13:00:27.908Z,1.00
2023-01-27T13:02:59.183Z,3.40
2023-01-27T13:05:26.875Z,2.27
2023-01-27T13:07:54.345Z,1.03
2023-01-27T13:10:23.159Z,0.93
2023-01-27T13:12:53.095Z,1.87
2023-01-27T13:15:21.513Z,1.20
2023-01-27T13:17:50.227Z,1.00
2023-01-27T13:20:20.229Z,0.80
2023-01-27T13:22:48.647Z,0.97
2023-01-27T13:25:19.042Z,1.23
2023-01-27T13:27:47.322Z,1.60
2023-01-27T13:30:23.257Z,8.77
2023-01-27T13:32:52.625Z,8.17
2023-01-27T13:35:22.484Z,2.17
2023-01-27T13:37:52.248Z,2.83
2023-01-27T13:40:21.307Z,1.53
2023-01-27T13:42:49.901Z,2.87
2023-01-27T13:45:20.230Z,2.40
2023-01-27T13:47:50.737Z,3.43
2023-01-27T13:50:22.265Z,1.20
2023-01-27T13:52:51.625Z,2.33
2023-01-27T13:55:22.747Z,0.70
2023-01-27T13:57:57.419Z,1.53
2023-01-27T14:00:32.705Z,1.90
2023-01-27T14:03:19.483Z,0.90
2023-01-27T14:05:53.719Z,0.73
2023-01-27T14:08:26.819Z,0.93
2023-01-27T14:11:04.307Z,0.90
2023-01-27T14:13:36.449Z,0.87
2023-01-27T14:16:10.726Z,1.47
2023-01-27T14:18:40.499Z,1.33
2023-01-27T14:21:14.425Z,1.27
2023-01-27T14:23:45.745Z,1.07
2023-01-27T14:26:18.736Z,1.40
2023-01-27T14:28:53.422Z,3.47
2023-01-27T14:31:24.283Z,1.73
2023-01-27T14:34:01.581Z,1.90
2023-01-27T14:36:30.667Z,1.53
2023-01-27T14:39:05.088Z,1.70
2023-01-27T14:41:35.384Z,2.37
2023-01-27T14:44:07.902Z,1.97
2023-01-27T14:46:47.974Z,8.07
2023-01-27T14:49:18.971Z,3.43
2023-01-27T14:51:50.552Z,1.10
2023-01-27T14:54:26.260Z,2.93
2023-01-27T14:57:03.471Z,3.70
2023-01-27T14:59:37.482Z,4.90
2023-01-27T15:02:13.334Z,3.53
2023-01-27T15:04:47.027Z,1.70
2023-01-27T15:07:17.584Z,2.90
2023-01-27T15:09:48.937Z,5.87
2023-01-27T15:12:30.754Z,1.90
2023-01-27T15:15:03.950Z,1.03
2023-01-27T15:17:37.431Z,2.23
2023-01-27T15:20:19.923Z,8.57
2023-01-27T15:22:53.512Z,1.97
2023-01-27T15:25:33.408Z,3.47
2023-01-27T15:28:01.609Z,1.00
2023-01-27T15:30:29.830Z,2.57
2023-01-27T15:32:58.565Z,4.07
2023-01-27T15:35:36.478Z,1.60
2023-01-27T15:38:18.828Z,1.33
2023-01-27T15:41:06.646Z,16.23
2023-01-27T15:43:37.828Z,13.30
2023-01-27T15:46:19.473Z,2.00
2023-01-27T15:48:48.946Z,15.20
2023-01-27T15:51:18.474Z,4.00
2023-01-27T15:53:49.839Z,9.83
2023-01-27T15:56:17.820Z,8.63
2023-01-27T15:58:46.782Z,4.43
2023-01-27T16:01:23.884Z,2.93
2023-01-27T16:03:53.016Z,1.70
2023-01-27T16:06:23.588Z,1.53
2023-01-27T16:08:53.104Z,1.57
2023-01-27T16:11:25.142Z,1.30
2023-01-27T16:13:52.904Z,1.67
2023-01-27T16:16:30.016Z,2.27
2023-01-27T16:19:01.721Z,1.37
2023-01-27T16:21:41.252Z,1.33
2023-01-27T16:24:13.127Z,0.90
2023-01-27T16:26:42.025Z,1.40
2023-01-27T16:29:19.569Z,2.27
2023-01-27T16:31:51.001Z,3.40
2023-01-27T16:34:23.194Z,5.67
2023-01-27T16:37:05.685Z,5.60
2023-01-27T16:39:35.392Z,4.47
2023-01-27T16:42:03.180Z,3.50
2023-01-27T16:44:32.249Z,5.20
2023-01-27T16:47:14.995Z,3.53
2023-01-27T16:49:45.121Z,4.90
2023-01-27T16:52:17.860Z,2.97
2023-01-27T16:54:45.688Z,5.17
2023-01-27T16:57:23.900Z,4.97
2023-01-27T16:59:51.544Z,6.30
2023-01-27T17:02:20.641Z,3.17
2023-01-27T17:04:51.590Z,6.50
2023-01-27T17:07:19.228Z,6.73
2023-01-27T17:09:51.467Z,5.60
2023-01-27T17:12:29.403Z,6.20
2023-01-27T17:14:57.172Z,3.43
2023-01-27T17:17:25.556Z,3.13
2023-01-27T17:19:56.653Z,4.10
2023-01-27T17:22:25.340Z,5.20
2023-01-27T17:24:54.303Z,6.47
2023-01-27T17:27:24.298Z,5.27
2023-01-27T17:29:54.755Z,5.17
2023-01-27T17:32:23.519Z,4.87
2023-01-27T17:34:51.664Z,6.30
2023-01-27T17:37:21.651Z,4.57
2023-01-27T17:39:52.916Z,4.43
2023-01-27T17:42:21.523Z,6.87
2023-01-27T17:44:50.474Z,7.07
2023-01-27T17:47:18.773Z,4.97
2023-01-27T17:49:47.243Z,5.43
2023-01-27T17:52:18.714Z,6.17
2023-01-27T17:54:47.680Z,7.73
2023-01-27T17:57:17.211Z,6.37
2023-01-27T17:59:46.424Z,11.17
2023-01-27T18:02:17.076Z,4.47
2023-01-27T18:04:44.540Z,6.03
2023-01-27T18:07:12.361Z,21.17
2023-01-27T18:09:44.567Z,36.00
2023-01-27T18:12:27.016Z,22.80
2023-01-27T18:14:54.391Z,7.13
2023-01-27T18:17:22.919Z,5.83
2023-01-27T18:19:51.180Z,3.77
2023-01-27T18:22:18.862Z,6.40
2023-01-27T18:24:50.865Z,5.80
2023-01-27T18:27:24.650Z,5.43
2023-01-27T18:29:53.835Z,4.60
2023-01-27T18:32:23.761Z,3.93
2023-01-27T18:34:52.317Z,5.27
2023-01-27T18:37:25.292Z,5.00
2023-01-27T18:39:52.827Z,8.10
2023-01-27T18:42:21.417Z,7.57
2023-01-27T18:44:51.072Z,8.97
2023-01-27T18:47:32.607Z,10.73
2023-01-27T18:50:12.759Z,13.57
2023-01-27T18:52:40.208Z,4.93
2023-01-27T18:55:12.240Z,7.83
2023-01-27T18:57:40.037Z,7.33
2023-01-27T19:00:10.448Z,8.10
2023-01-27T19:02:38.149Z,7.90
2023-01-27T19:05:05.887Z,4.40
2023-01-27T19:07:33.630Z,6.87
2023-01-27T19:10:00.996Z,6.20
2023-01-27T19:12:28.375Z,7.83
2023-01-27T19:14:55.707Z,5.37
2023-01-27T19:17:24.464Z,4.97
2023-01-27T19:19:51.885Z,4.17
2023-01-27T19:22:20.696Z,5.07
2023-01-27T19:24:50.371Z,5.17
2023-01-27T19:27:18.646Z,4.20
2023-01-27T19:29:45.987Z,10.47
2023-01-27T19:32:14.607Z,3.80
2023-01-27T19:34:43.311Z,9.27
2023-01-27T19:37:19.871Z,6.73
2023-01-27T19:39:49.080Z,9.30
2023-01-27T19:42:16.703Z,9.17
2023-01-27T19:44:44.126Z,8.57
2023-01-27T19:47:12.151Z,7.17
2023-01-27T19:49:39.617Z,7.33
2023-01-27T19:52:10.063Z,6.43
2023-01-27T19:54:37.614Z,11.77
2023-01-27T19:57:05.954Z,9.73
2023-01-27T19:59:33.306Z,11.93
2023-01-27T20:02:00.755Z,11.43
2023-01-27T20:04:28.297Z,11.77
2023-01-27T20:06:55.687Z,12.93
2023-01-27T20:09:24.468Z,10.97
2023-01-27T20:11:51.837Z,10.63
2023-01-27T20:14:20.276Z,10.47
2023-01-27T20:16:48.199Z,12.67
2023-01-27T20:19:16.150Z,11.03
2023-01-27T20:21:43.548Z,7.93
2023-01-27T20:24:14.269Z,10.80
2023-01-27T20:26:42.958Z,12.33
2023-01-27T20:29:10.707Z,7.43
2023-01-27T20:31:39.156Z,12.70
2023-01-27T20:34:07.088Z,10.17
2023-01-27T20:36:34.467Z,6.63
2023-01-27T20:39:01.845Z,5.10
2023-01-27T20:41:29.232Z,8.87
2023-01-27T20:43:58.577Z,12.40
2023-01-27T20:46:26.153Z,15.03
2023-01-27T20:48:53.800Z,10.00
2023-01-27T20:51:21.163Z,18.77
2023-01-27T20:53:49.299Z,10.07
2023-01-27T20:56:18.072Z,9.80
2023-01-27T20:58:45.826Z,9.47
2023-01-27T21:01:15.614Z,15.23
2023-01-27T21:03:43.424Z,11.60
2023-01-27T21:06:12.214Z,12.17
2023-01-27T21:08:39.879Z,16.17
2023-01-27T21:11:10.666Z,13.90
2023-01-27T21:13:38.038Z,18.33
2023-01-27T21:16:05.543Z,12.17
2023-01-27T21:18:34.400Z,17.30
2023-01-27T21:21:03.984Z,7.50
2023-01-27T21:23:32.475Z,11.10
2023-01-27T21:26:03.823Z,13.03
2023-01-27T21:28:32.828Z,10.57
2023-01-27T21:31:05.435Z,9.07
2023-01-27T21:33:34.502Z,6.10
2023-01-27T21:36:01.827Z,6.33
2023-01-27T21:38:29.252Z,8.43
2023-01-27T21:40:56.967Z,19.00
2023-01-27T21:43:41.987Z,10.77
2023-01-27T21:46:09.319Z,10.83
2023-01-27T21:48:37.983Z,7.17
2023-01-27T21:51:05.485Z,5.77
2023-01-27T21:53:33.391Z,4.43
2023-01-27T21:56:04.934Z,10.73
2023-01-27T21:58:32.880Z,4.60
2023-01-27T22:01:04.994Z,4.70
2023-01-27T22:03:32.525Z,4.10
2023-01-27T22:06:04.090Z,6.20
2023-01-27T22:08:31.901Z,4.07
2023-01-27T22:11:03.076Z,6.40
2023-01-27T22:13:30.468Z,6.00
2023-01-27T22:15:57.874Z,4.63
2023-01-27T22:18:25.292Z,4.10
2023-01-27T22:20:52.646Z,3.80
2023-01-27T22:23:21.770Z,5.90
2023-01-27T22:25:49.574Z,5.07
2023-01-27T22:28:17.134Z,5.30
2023-01-27T22:30:45.529Z,4.07
2023-01-27T22:33:13.241Z,3.23
2023-01-27T22:35:40.592Z,4.27
2023-01-27T22:38:08.065Z,4.80
2023-01-27T22:40:36.779Z,4.57
2023-01-27T22:43:09.139Z,3.17
2023-01-27T22:45:38.344Z,5.30
2023-01-27T22:48:06.004Z,3.13
2023-01-27T22:50:33.374Z,2.83
2023-01-27T22:53:00.712Z,3.47
2023-01-27T22:55:28.073Z,6.03
2023-01-27T22:57:56.784Z,5.50
2023-01-27T23:00:24.433Z,5.17
2023-01-27T23:02:51.850Z,3.30
2023-01-27T23:05:19.416Z,3.57
2023-01-27T23:07:47.566Z,3.40
2023-01-27T23:10:15.021Z,4.50
2023-01-27T23:12:42.374Z,5.13
2023-01-27T23:15:11.664Z,3.93
2023-01-27T23:17:39.269Z,5.43
2023-01-27T23:20:07.217Z,3.63
2023-01-27T23:22:34.615Z,5.30
2023-01-27T23:25:02.237Z,7.37
2023-01-27T23:27:30.581Z,4.40
2023-01-27T23:29:57.952Z,5.83
2023-01-27T23:32:26.682Z,4.63
2023-01-27T23:34:54.073Z,4.37
2023-01-27T23:37:21.401Z,4.33
2023-01-27T23:39:49.670Z,5.73
2023-01-27T23:42:17.270Z,5.73
2023-01-27T23:44:44.725Z,3.83
2023-01-27T23:47:12.442Z,3.87
2023-01-27T23:49:41.125Z,4.60
2023-01-27T23:52:08.629Z,7.03
2023-01-27T23:54:36.008Z,4.67
2023-01-27T23:57:03.344Z,6.83
2023-01-27T23:59:30.744Z,3.77
